Time;durP1;ratioP1;P1;durP2;ratioP2;P2;SDS_P1;SDS_P2;PMS_P1;PMS_P2;Temp;Humidity;BMP_temperature;BMP_pressure;BME280_temperature;BME280_humidity;BME280_pressure;Samples;Min_cycle;Max_cycle;Signal;HPM_P1;HPM_P2
2022/05/31 00:00:10;;;;;;;2.35;1.50;;;14.70;53.90;;;;;;4996094;28;20030;-79
2022/05/31 00:02:37;;;;;;;2.10;1.40;;;14.60;54.00;;;;;;5019250;28;20030;-78
2022/05/31 00:05:02;;;;;;;1.77;1.27;;;14.60;54.50;;;;;;5012506;28;20030;-79
2022/05/31 00:07:28;;;;;;;2.00;1.50;;;14.60;55.00;;;;;;5012623;28;20473;-79
2022/05/31 00:09:54;;;;;;;2.42;1.50;;;14.50;54.80;;;;;;4998671;28;20560;-79
2022/05/31 00:12:20;;;;;;;3.63;1.70;;;14.60;54.70;;;;;;4997132;28;20014;-78
2022/05/31 00:14:46;;;;;;;2.83;1.60;;;14.40;55.50;;;;;;4996918;28;20512;-78
2022/05/31 00:17:11;;;;;;;1.83;1.45;;;14.30;56.30;;;;;;4996533;28;20027;-79
2022/05/31 00:19:38;;;;;;;3.97;1.50;;;14.30;56.30;;;;;;4979486;28;20035;-78
2022/05/31 00:22:13;;;;;;;2.92;1.60;;;14.20;56.70;;;;;;5030258;28;20022;-78
2022/05/31 00:24:40;;;;;;;1.77;1.55;;;14.20;56.80;;;;;;5015285;28;20034;-79
2022/05/31 00:27:08;;;;;;;3.50;1.40;;;14.20;56.90;;;;;;5009764;28;20038;-79
2022/05/31 00:29:34;;;;;;;1.83;1.50;;;14.20;56.70;;;;;;5011938;28;20050;-78
2022/05/31 00:32:03;;;;;;;3.17;1.67;;;14.30;56.90;;;;;;5012305;28;20034;-79
2022/05/31 00:34:31;;;;;;;2.03;1.60;;;14.20;57.10;;;;;;5012132;28;20108;-79
2022/05/31 00:36:57;;;;;;;1.92;1.55;;;14.20;57.20;;;;;;4996890;28;20035;-79
2022/05/31 00:39:23;;;;;;;2.55;1.15;;;14.10;57.50;;;;;;4996701;28;20023;-79
2022/05/31 00:42:05;;;;;;;1.70;1.38;;;14.10;57.90;;;;;;4996211;28;20074;-79
2022/05/31 00:44:33;;;;;;;2.10;1.70;;;14.00;58.40;;;;;;5010211;28;20022;-79
2022/05/31 00:47:12;;;;;;;3.25;1.75;;;14.00;58.50;;;;;;5011713;28;20050;-79
2022/05/31 00:49:43;;;;;;;2.05;1.50;;;14.00;58.90;;;;;;4999892;28;20022;-78
2022/05/31 00:52:24;;;;;;;4.13;1.90;;;14.10;58.40;;;;;;4996138;28;20030;-79
2022/05/31 00:55:12;;;;;;;2.72;1.95;;;14.20;58.70;;;;;;4996110;28;20030;-79
2022/05/31 00:57:42;;;;;;;2.53;1.60;;;14.30;58.80;;;;;;4996526;28;20463;-78
2022/05/31 01:00:12;;;;;;;2.30;1.48;;;14.30;58.80;;;;;;4996252;28;20026;-79
2022/05/31 01:02:41;;;;;;;3.03;1.70;;;14.30;58.40;;;;;;4996130;28;20042;-79
2022/05/31 01:05:09;;;;;;;1.88;1.45;;;14.30;58.30;;;;;;5011257;28;20026;-79
2022/05/31 01:07:36;;;;;;;2.97;1.92;;;14.30;58.40;;;;;;4997952;28;20033;-79
2022/05/31 01:10:08;;;;;;;2.80;1.98;;;14.30;58.40;;;;;;5015666;28;20033;-78
2022/05/31 01:12:34;;;;;;;2.25;1.58;;;14.20;58.60;;;;;;5015095;28;20022;-79
2022/05/31 01:15:03;;;;;;;2.50;1.90;;;14.20;59.60;;;;;;5014920;28;20037;-77
2022/05/31 01:17:29;;;;;;;4.70;1.98;;;14.20;59.40;;;;;;5010931;28;20026;-79
2022/05/31 01:20:01;;;;;;;3.15;1.95;;;14.10;59.70;;;;;;4996840;28;20065;-78
2022/05/31 01:22:29;;;;;;;5.80;2.00;;;14.10;59.30;;;;;;5015658;28;20037;-78
2022/05/31 01:25:18;;;;;;;3.60;1.98;;;14.10;59.80;;;;;;5010063;28;20026;-79
2022/05/31 01:28:17;;;;;;;2.53;2.08;;;14.10;59.70;;;;;;5010340;28;20035;-79
2022/05/31 01:30:51;;;;;;;3.78;1.90;;;14.00;60.50;;;;;;5000638;28;20548;-79
2022/05/31 01:33:31;;;;;;;3.08;2.03;;;14.00;60.10;;;;;;5006859;28;20030;-79
2022/05/31 01:36:04;;;;;;;2.75;2.10;;;14.00;60.60;;;;;;5010335;28;20038;-79
2022/05/31 01:38:40;;;;;;;5.38;2.00;;;14.00;60.10;;;;;;5010682;28;20041;-79
2022/05/31 01:41:24;;;;;;;2.70;2.05;;;14.00;60.80;;;;;;5010268;28;20050;-79
2022/05/31 01:43:56;;;;;;;2.85;2.00;;;14.10;61.30;;;;;;4998660;28;20048;-78
2022/05/31 01:46:29;;;;;;;4.47;1.98;;;14.10;60.70;;;;;;5010400;28;20386;-79
2022/05/31 01:48:57;;;;;;;3.25;2.22;;;14.10;60.40;;;;;;4995247;28;20034;-79
2022/05/31 01:51:23;;;;;;;3.03;2.28;;;14.10;60.10;;;;;;4995115;28;20092;-79
2022/05/31 01:53:50;;;;;;;5.15;2.47;;;14.10;60.60;;;;;;4995186;28;20045;-79
2022/05/31 01:56:16;;;;;;;3.60;2.22;;;14.00;60.90;;;;;;4994860;28;20493;-79
2022/05/31 01:58:47;;;;;;;3.10;2.10;;;14.00;60.50;;;;;;5010306;28;20034;-79
2022/05/31 02:01:13;;;;;;;5.07;2.28;;;14.00;61.20;;;;;;4995406;28;20035;-79
2022/05/31 02:03:40;;;;;;;4.00;2.15;;;13.90;61.70;;;;;;4996241;28;20120;-78
2022/05/31 02:06:22;;;;;;;2.60;2.00;;;13.90;62.00;;;;;;4993853;28;20031;-79
2022/05/31 02:08:48;;;;;;;3.05;2.53;;;13.90;62.60;;;;;;4997591;28;20021;-78
2022/05/31 02:11:14;;;;;;;5.68;2.42;;;13.80;62.20;;;;;;5014921;28;20068;-79
2022/05/31 02:13:39;;;;;;;3.92;2.35;;;13.80;62.00;;;;;;4996793;28;20058;-79
2022/05/31 02:16:05;;;;;;;3.10;2.40;;;13.80;62.30;;;;;;4999043;28;20177;-78
2022/05/31 02:21:15;;;;;;;3.78;2.88;;;13.80;63.10;;;;;;4997822;28;20053;-78
2022/05/31 02:23:40;;;;;;;3.78;2.45;;;13.70;64.30;;;;;;4994377;28;20034;-78
2022/05/31 02:26:06;;;;;;;2.72;2.28;;;13.60;65.30;;;;;;5009653;28;20061;-79
2022/05/31 02:28:32;;;;;;;4.68;2.83;;;13.60;65.00;;;;;;4994427;28;20079;-79
2022/05/31 02:30:57;;;;;;;3.83;2.63;;;13.50;65.40;;;;;;4994746;28;20038;-78
2022/05/31 02:33:23;;;;;;;3.33;2.63;;;13.60;65.50;;;;;;4993318;28;20058;-79
2022/05/31 02:35:49;;;;;;;3.53;2.53;;;13.50;66.20;;;;;;5009479;28;20034;-78
2022/05/31 02:38:15;;;;;;;5.53;2.67;;;13.50;66.10;;;;;;5009466;28;20485;-79
2022/05/31 02:40:40;;;;;;;5.63;2.67;;;13.50;66.20;;;;;;4994200;28;20106;-78
2022/05/31 02:43:07;;;;;;;3.40;2.55;;;13.40;66.70;;;;;;4993977;28;20023;-78
2022/05/31 02:45:33;;;;;;;4.97;2.47;;;13.30;67.30;;;;;;4994415;28;20046;-79
2022/05/31 02:47:59;;;;;;;4.43;2.65;;;13.40;66.80;;;;;;5006935;28;20829;-79
2022/05/31 02:50:25;;;;;;;4.75;2.67;;;13.50;66.70;;;;;;4992698;28;20056;-78
2022/05/31 02:52:50;;;;;;;3.60;2.47;;;13.50;66.40;;;;;;4994315;28;20567;-79
2022/05/31 02:55:16;;;;;;;4.53;2.85;;;13.50;66.50;;;;;;5009541;28;20041;-79
2022/05/31 02:57:42;;;;;;;3.00;2.42;;;13.60;66.00;;;;;;4993973;28;20022;-78
2022/05/31 03:00:10;;;;;;;4.50;2.88;;;13.60;66.00;;;;;;4992581;28;20065;-79
2022/05/31 03:02:37;;;;;;;5.70;3.28;;;13.60;65.80;;;;;;5008823;28;20022;-79
2022/05/31 03:05:04;;;;;;;6.03;2.78;;;13.60;65.70;;;;;;5008811;28;20042;-79
2022/05/31 03:07:29;;;;;;;4.35;2.83;;;13.60;65.50;;;;;;4993343;28;20038;-79
2022/05/31 03:09:55;;;;;;;4.05;2.60;;;13.70;65.90;;;;;;5021073;28;20484;-79
2022/05/31 03:12:24;;;;;;;8.02;3.05;;;13.60;66.20;;;;;;4996714;28;20030;-78
2022/05/31 03:15:01;;;;;;;5.80;3.00;;;13.60;65.60;;;;;;4992541;28;20026;-78
2022/05/31 03:17:48;;;;;;;4.78;3.40;;;13.60;65.90;;;;;;4993915;28;20030;-78
2022/05/31 03:20:27;;;;;;;4.57;2.60;;;13.60;65.50;;;;;;4997398;28;20064;-78
2022/05/31 03:22:58;;;;;;;7.18;4.15;;;13.50;66.00;;;;;;5012646;28;20026;-77
2022/05/31 03:25:27;;;;;;;5.13;3.00;;;13.50;66.40;;;;;;5012291;28;20145;-78
2022/05/31 03:27:57;;;;;;;4.97;2.90;;;13.50;66.70;;;;;;5012030;28;20026;-79
2022/05/31 03:30:22;;;;;;;5.80;3.08;;;13.40;66.60;;;;;;5010342;28;20034;-78
2022/05/31 03:32:49;;;;;;;3.75;2.58;;;13.40;66.60;;;;;;5001016;28;20132;-78
2022/05/31 03:35:15;;;;;;;6.05;3.45;;;13.40;66.20;;;;;;5011946;28;20041;-79
2022/05/31 03:37:41;;;;;;;4.82;2.88;;;13.50;66.10;;;;;;5012033;28;20026;-78
2022/05/31 03:40:07;;;;;;;5.70;3.42;;;13.40;66.70;;;;;;5005100;28;20045;-79
2022/05/31 03:42:33;;;;;;;3.67;2.97;;;13.40;66.50;;;;;;4993431;28;20167;-79
2022/05/31 03:44:59;;;;;;;4.05;3.03;;;13.40;66.30;;;;;;4993677;28;20027;-79
2022/05/31 03:47:25;;;;;;;5.20;2.92;;;13.30;66.90;;;;;;5008676;28;20543;-79
2022/05/31 03:49:51;;;;;;;5.28;3.22;;;13.30;66.60;;;;;;4993646;28;20109;-79
2022/05/31 03:52:17;;;;;;;4.40;3.20;;;13.30;66.50;;;;;;4993327;28;20081;-78
2022/05/31 03:54:42;;;;;;;6.50;3.53;;;13.20;67.30;;;;;;5008321;28;20117;-78
2022/05/31 03:57:14;;;;;;;3.55;2.63;;;13.20;67.50;;;;;;4991868;28;20041;-77
2022/05/31 03:59:40;;;;;;;7.95;3.40;;;13.20;68.00;;;;;;4993275;28;20069;-78
2022/05/31 04:02:06;;;;;;;5.15;3.78;;;13.10;67.60;;;;;;4993694;28;20034;-78
2022/05/31 04:04:32;;;;;;;4.75;3.33;;;13.10;67.40;;;;;;4991839;28;20118;-79
2022/05/31 04:06:58;;;;;;;6.10;3.45;;;13.10;67.90;;;;;;4993460;28;20046;-78
2022/05/31 04:09:24;;;;;;;4.05;3.22;;;13.10;67.30;;;;;;4995003;28;21131;-79
2022/05/31 04:11:50;;;;;;;5.55;3.40;;;13.10;67.70;;;;;;4993560;28;20033;-78
2022/05/31 04:14:16;;;;;;;4.53;3.45;;;13.00;68.10;;;;;;5002426;28;20076;-79
2022/05/31 04:16:42;;;;;;;7.63;3.55;;;13.00;67.30;;;;;;5010793;28;20042;-80
2022/05/31 04:19:07;;;;;;;4.65;3.35;;;13.00;68.10;;;;;;4995116;28;20045;-79
2022/05/31 04:21:33;;;;;;;4.43;3.80;;;12.90;68.00;;;;;;5018073;28;20030;-80
2022/05/31 04:23:59;;;;;;;4.25;3.28;;;12.80;69.20;;;;;;4996834;28;20165;-77
2022/05/31 04:26:30;;;;;;;5.43;3.70;;;12.80;69.40;;;;;;4999273;28;20036;-78
2022/05/31 04:28:55;;;;;;;7.63;3.85;;;12.80;69.00;;;;;;4996969;28;20117;-78
2022/05/31 04:31:21;;;;;;;7.15;3.50;;;12.80;68.90;;;;;;4996312;28;20058;-79
2022/05/31 04:33:47;;;;;;;4.50;3.20;;;12.80;69.00;;;;;;5006052;28;20033;-78
2022/05/31 04:36:16;;;;;;;7.25;3.78;;;12.80;69.00;;;;;;4996866;28;20044;-78
2022/05/31 04:38:42;;;;;;;5.53;3.75;;;12.80;68.90;;;;;;4996658;28;20033;-79
2022/05/31 04:41:15;;;;;;;4.82;3.58;;;12.80;69.00;;;;;;4996562;28;20112;-79
2022/05/31 04:43:40;;;;;;;4.75;3.22;;;12.80;68.80;;;;;;4995349;28;20023;-78
2022/05/31 04:46:11;;;;;;;5.22;3.50;;;12.80;68.70;;;;;;4996629;28;20515;-78
2022/05/31 04:48:37;;;;;;;6.15;3.72;;;12.80;68.60;;;;;;4996304;28;20033;-76
2022/05/31 04:51:03;;;;;;;4.55;3.15;;;12.90;68.20;;;;;;4994382;28;20492;-76
2022/05/31 04:53:28;;;;;;;5.93;3.38;;;12.90;68.40;;;;;;4995032;28;20543;-76
2022/05/31 04:56:05;;;;;;;5.43;3.88;;;12.90;68.60;;;;;;5000155;28;20117;-74
2022/05/31 04:58:31;;;;;;;5.13;3.38;;;12.90;68.50;;;;;;4996407;28;20034;-74
2022/05/31 05:00:57;;;;;;;5.13;3.38;;;12.90;68.60;;;;;;5007449;28;20026;-74
2022/05/31 05:03:23;;;;;;;5.90;3.17;;;12.90;68.70;;;;;;5011511;28;20738;-74
2022/05/31 05:05:49;;;;;;;6.95;4.03;;;12.90;68.50;;;;;;5015494;28;20105;-75
2022/05/31 05:08:14;;;;;;;5.85;3.13;;;12.90;69.20;;;;;;5015502;28;20069;-75
2022/05/31 05:10:44;;;;;;;4.05;3.03;;;12.90;69.20;;;;;;5009939;28;20057;-74
2022/05/31 05:13:10;;;;;;;6.18;3.40;;;12.80;69.30;;;;;;5013195;28;20017;-75
2022/05/31 05:15:39;;;;;;;4.93;3.38;;;12.90;69.30;;;;;;5009382;28;20566;-74
2022/05/31 05:18:05;;;;;;;4.47;3.03;;;12.80;69.30;;;;;;5010297;28;20021;-74
2022/05/31 05:20:34;;;;;;;6.60;3.35;;;12.80;69.20;;;;;;5006648;28;20461;-76
2022/05/31 05:23:02;;;;;;;4.53;3.08;;;12.80;69.40;;;;;;5013718;28;20088;-76
2022/05/31 05:25:28;;;;;;;5.85;3.83;;;12.90;68.80;;;;;;5001782;28;20085;-75
2022/05/31 05:27:53;;;;;;;3.65;2.50;;;13.00;68.90;;;;;;5010499;28;20064;-76
2022/05/31 05:33:03;;;;;;;5.13;3.42;;;13.00;68.90;;;;;;5004915;28;20598;-80
2022/05/31 05:35:29;;;;;;;6.32;3.03;;;13.10;69.30;;;;;;5015246;28;20406;-82
2022/05/31 05:37:54;;;;;;;5.32;3.30;;;13.10;69.50;;;;;;5004979;28;20030;-82
2022/05/31 05:40:20;;;;;;;4.45;3.30;;;13.10;69.30;;;;;;4994973;28;20409;-82
2022/05/31 05:42:46;;;;;;;6.93;3.50;;;13.10;69.50;;;;;;4995284;28;20113;-82
2022/05/31 05:45:11;;;;;;;4.35;3.08;;;13.10;69.50;;;;;;4994374;28;20034;-82
2022/05/31 05:47:38;;;;;;;4.60;3.40;;;13.10;69.80;;;;;;5010139;28;20039;-82
2022/05/31 05:50:05;;;;;;;6.25;3.65;;;13.20;69.40;;;;;;5009780;28;20032;-82
2022/05/31 05:52:32;;;;;;;6.88;3.35;;;13.20;70.10;;;;;;4994593;28;20026;-79
2022/05/31 05:54:58;;;;;;;4.78;3.38;;;13.30;69.50;;;;;;5011433;28;20030;-80
2022/05/31 05:57:24;;;;;;;9.35;3.72;;;13.30;70.30;;;;;;5013765;28;20026;-80
2022/05/31 05:59:49;;;;;;;5.30;3.97;;;13.30;70.00;;;;;;5014815;28;20018;-80
2022/05/31 06:02:22;;;;;;;6.63;2.97;;;13.40;69.60;;;;;;5013505;28;20069;-80
2022/05/31 06:04:57;;;;;;;5.45;3.40;;;13.40;71.10;;;;;;5010324;28;20030;-80
2022/05/31 06:07:34;;;;;;;4.53;2.70;;;13.40;70.80;;;;;;4995077;28;20473;-80
2022/05/31 06:10:08;;;;;;;6.25;3.40;;;13.40;71.30;;;;;;4994825;28;20031;-80
2022/05/31 06:12:38;;;;;;;4.03;2.90;;;13.40;70.80;;;;;;4998126;28;20428;-80
2022/05/31 06:15:26;;;;;;;;;;;13.50;70.70;;;;;;4995499;28;20018;-80
2022/05/31 06:17:55;;;;;;;5.82;2.72;;;13.50;70.40;;;;;;4994899;28;19910;-80
2022/05/31 06:20:22;;;;;;;3.42;2.78;;;13.60;69.70;;;;;;4999522;28;20017;-80
2022/05/31 06:22:48;;;;;;;7.38;2.78;;;13.70;71.10;;;;;;5013323;28;20034;-80
2022/05/31 06:25:17;;;;;;;5.32;3.30;;;13.60;71.10;;;;;;5012853;28;20125;-80
2022/05/31 06:27:42;;;;;;;4.00;2.67;;;13.70;69.40;;;;;;5009166;28;20153;-80
2022/05/31 06:30:09;;;;;;;3.95;2.88;;;13.80;70.10;;;;;;4994679;28;20034;-80
2022/05/31 06:32:34;;;;;;;2.95;2.40;;;13.80;69.80;;;;;;4993324;28;20014;-80
2022/05/31 06:35:01;;;;;;;3.63;2.63;;;13.80;69.70;;;;;;4993749;28;20022;-80
2022/05/31 06:37:29;;;;;;;5.72;2.42;;;13.90;70.00;;;;;;4993552;28;20034;-80
2022/05/31 06:39:55;;;;;;;3.97;2.50;;;13.90;69.40;;;;;;4994303;28;20058;-81
2022/05/31 06:42:20;;;;;;;2.90;2.03;;;13.90;69.80;;;;;;4994230;28;20057;-80
2022/05/31 06:44:46;;;;;;;3.15;2.20;;;13.90;69.70;;;;;;4994350;28;20039;-80
2022/05/31 06:47:12;;;;;;;5.53;2.33;;;14.00;68.80;;;;;;4993907;28;20022;-80
2022/05/31 06:49:38;;;;;;;4.60;1.98;;;14.00;69.60;;;;;;4994094;28;20034;-80
2022/05/31 06:57:38;;;;;;;4.55;2.30;;;14.30;68.90;;;;;;5006640;28;20048;-80
2022/05/31 07:00:09;;;;;;;4.68;2.38;;;14.30;68.50;;;;;;4994235;28;20030;-80
2022/05/31 07:02:35;;;;;;;2.97;2.20;;;14.40;68.40;;;;;;4994281;28;20026;-80
2022/05/31 07:05:01;;;;;;;2.92;2.08;;;14.40;68.10;;;;;;4994069;28;20037;-80
2022/05/31 07:07:27;;;;;;;3.35;2.15;;;14.50;68.30;;;;;;4993424;28;20042;-80
2022/05/31 07:09:53;;;;;;;2.03;1.70;;;14.50;68.10;;;;;;4993978;28;20368;-80
2022/05/31 07:12:20;;;;;;;2.30;1.77;;;14.60;67.60;;;;;;5008200;28;20520;-80
2022/05/31 07:14:45;;;;;;;3.67;1.85;;;14.70;66.10;;;;;;5000920;28;20030;-80
2022/05/31 07:17:11;;;;;;;2.95;1.83;;;14.70;66.50;;;;;;4992878;28;20092;-80
2022/05/31 07:19:38;;;;;;;3.20;2.10;;;14.90;65.60;;;;;;5008974;28;20062;-80
2022/05/31 07:22:04;;;;;;;2.65;1.80;;;14.90;65.10;;;;;;5012451;28;20116;-80
2022/05/31 07:24:31;;;;;;;3.35;2.47;;;15.20;64.00;;;;;;4995073;28;20068;-80
2022/05/31 07:26:57;;;;;;;4.03;1.55;;;15.60;63.00;;;;;;5009233;28;20035;-80
2022/05/31 07:29:23;;;;;;;2.15;1.27;;;16.20;60.90;;;;;;4994214;28;20038;-80
2022/05/31 07:31:49;;;;;;;5.18;1.77;;;17.50;56.40;;;;;;4993656;28;20023;-78
2022/05/31 07:34:16;;;;;;;2.33;1.30;;;18.80;52.70;;;;;;5028032;28;20038;-78
2022/05/31 07:36:42;;;;;;;2.92;1.42;;;21.60;47.80;;;;;;5012330;28;20033;-78
2022/05/31 07:39:18;;;;;;;3.13;1.00;;;25.00;40.00;;;;;;4993779;28;20026;-79
2022/05/31 07:41:46;;;;;;;2.83;0.90;;;27.90;35.70;;;;;;4993345;28;20073;-80
2022/05/31 07:44:14;;;;;;;2.40;0.80;;;30.00;31.60;;;;;;4992955;28;20022;-80
2022/05/31 07:46:40;;;;;;;2.63;0.80;;;31.40;28.30;;;;;;4993627;28;20127;-79
2022/05/31 07:49:06;;;;;;;2.70;0.88;;;32.80;26.00;;;;;;4993474;28;20026;-79
2022/05/31 07:51:31;;;;;;;1.35;0.65;;;33.80;25.20;;;;;;4993677;28;20030;-79
2022/05/31 07:53:58;;;;;;;2.70;0.80;;;34.60;23.60;;;;;;4994681;28;20497;-79
2022/05/31 07:56:24;;;;;;;16.58;2.53;;;35.10;22.50;;;;;;5004436;28;20041;-79
2022/05/31 07:58:50;;;;;;;27.30;4.43;;;35.40;22.00;;;;;;4997466;28;20026;-80
2022/05/31 08:01:22;;;;;;;4.43;1.05;;;36.00;21.40;;;;;;4996703;28;20038;-79
2022/05/31 08:03:49;;;;;;;3.28;0.80;;;36.30;19.90;;;;;;4997482;28;20026;-79
2022/05/31 08:06:17;;;;;;;2.08;0.73;;;36.70;20.20;;;;;;4997084;28;20046;-79
2022/05/31 08:08:44;;;;;;;10.30;1.70;;;37.10;19.50;;;;;;4997284;28;20023;-79
2022/05/31 08:11:16;;;;;;;4.88;0.80;;;37.20;18.10;;;;;;5003404;28;20432;-80
2022/05/31 08:13:42;;;;;;;1.33;0.60;;;37.70;18.70;;;;;;5014863;28;20025;-79
2022/05/31 08:16:11;;;;;;;1.55;0.52;;;37.90;18.30;;;;;;4997009;28;20031;-79
2022/05/31 08:18:38;;;;;;;1.95;0.60;;;37.90;18.70;;;;;;4996792;28;20085;-79
2022/05/31 08:21:06;;;;;;;2.45;0.60;;;38.20;18.70;;;;;;5007781;28;20132;-79
2022/05/31 08:23:33;;;;;;;;;;;38.50;17.90;;;;;;5011815;28;20061;-79
2022/05/31 08:25:59;;;;;;;2.78;0.57;;;38.50;17.70;;;;;;4997036;28;19905;-78
2022/05/31 08:28:25;;;;;;;3.20;0.98;;;38.50;17.50;;;;;;5012403;28;20033;-79
2022/05/31 08:30:56;;;;;;;2.80;0.98;;;38.30;17.40;;;;;;4995757;28;20026;-78
2022/05/31 08:33:22;;;;;;;2.88;0.70;;;37.90;17.50;;;;;;5008000;28;20026;-78
2022/05/31 08:35:47;;;;;;;2.08;0.70;;;38.00;17.90;;;;;;5016349;28;20511;-79
2022/05/31 08:38:15;;;;;;;2.03;0.80;;;38.00;18.30;;;;;;5016405;28;20030;-79
2022/05/31 08:41:01;;;;;;;4.15;0.93;;;38.00;18.10;;;;;;5005114;28;20026;-79
2022/05/31 08:43:50;;;;;;;3.92;0.70;;;37.90;17.80;;;;;;4996336;28;20042;-79
2022/05/31 08:46:29;;;;;;;2.35;1.20;;;38.10;17.70;;;;;;4994656;28;20051;-79
2022/05/31 08:49:06;;;;;;;2.72;0.85;;;38.20;18.80;;;;;;4996663;28;20069;-79
2022/05/31 08:57:31;;;;;;;1.83;0.88;;;37.40;18.50;;;;;;5016174;28;20081;-78
2022/05/31 09:00:10;;;;;;;1.80;0.77;;;37.60;18.20;;;;;;5009069;28;20031;-78
2022/05/31 09:02:52;;;;;;;2.70;0.70;;;37.40;18.80;;;;;;4996662;28;20019;-79
2022/05/31 09:05:31;;;;;;;2.28;1.00;;;37.80;18.70;;;;;;4994942;28;20084;-79
2022/05/31 09:08:19;;;;;;;1.27;0.60;;;37.80;18.60;;;;;;4996259;28;20026;-79
2022/05/31 09:11:16;;;;;;;2.17;0.65;;;38.10;18.70;;;;;;4996921;28;20045;-80
2022/05/31 09:13:48;;;;;;;1.93;0.60;;;37.70;18.20;;;;;;5010962;28;20087;-79
2022/05/31 09:16:36;;;;;;;1.45;0.60;;;38.10;18.70;;;;;;4996068;28;20018;-79
2022/05/31 09:19:09;;;;;;;3.38;0.60;;;38.40;18.10;;;;;;4996094;28;20125;-79
2022/05/31 09:21:40;;;;;;;2.58;1.02;;;38.70;17.70;;;;;;5009950;28;20042;-79
2022/05/31 09:24:19;;;;;;;1.13;0.50;;;38.80;17.60;;;;;;4996021;28;20023;-78
2022/05/31 09:26:51;;;;;;;2.53;0.85;;;38.80;16.80;;;;;;4994433;28;20093;-79
2022/05/31 09:29:25;;;;;;;1.83;0.80;;;38.80;17.10;;;;;;4995978;28;20031;-79
2022/05/31 09:32:15;;;;;;;3.22;0.68;;;39.00;17.10;;;;;;4995195;28;20034;-79
2022/05/31 09:35:07;;;;;;;3.47;1.05;;;37.10;19.70;;;;;;4995593;28;20401;-79
2022/05/31 09:37:43;;;;;;;2.67;0.80;;;37.80;18.80;;;;;;4995443;28;20062;-78
2022/05/31 09:40:27;;;;;;;2.60;1.05;;;38.30;18.20;;;;;;4995608;28;20084;-79
2022/05/31 09:43:02;;;;;;;3.28;0.90;;;38.30;17.90;;;;;;4994203;28;20040;-79
2022/05/31 09:45:31;;;;;;;3.65;0.90;;;38.50;17.60;;;;;;4995616;28;20057;-79
2022/05/31 09:47:59;;;;;;;1.05;0.70;;;36.90;17.40;;;;;;4995645;28;20550;-79
2022/05/31 09:50:27;;;;;;;2.53;0.70;;;36.90;17.30;;;;;;4994966;28;20033;-78
2022/05/31 09:52:56;;;;;;;2.92;0.80;;;36.90;17.00;;;;;;5010637;28;20148;-78
2022/05/31 09:58:24;;;;;;;2.35;0.80;;;37.30;17.10;;;;;;4995482;28;20546;-79
2022/05/31 10:01:12;;;;;;;1.17;0.50;;;37.40;18.50;;;;;;4995305;28;20077;-78
2022/05/31 10:03:44;;;;;;;5.25;0.98;;;37.40;17.70;;;;;;4995242;28;20058;-78
2022/05/31 10:06:18;;;;;;;3.25;0.70;;;36.40;18.90;;;;;;4994900;28;20425;-79
2022/05/31 10:08:47;;;;;;;3.05;0.80;;;36.40;19.20;;;;;;4994752;28;20026;-79
2022/05/31 10:11:20;;;;;;;1.30;0.50;;;36.60;19.50;;;;;;5001591;28;20021;-79
2022/05/31 10:14:05;;;;;;;1.77;0.50;;;35.90;18.60;;;;;;5006306;28;20035;-79
2022/05/31 10:16:32;;;;;;;3.08;0.80;;;35.10;19.70;;;;;;4994917;28;20030;-78
2022/05/31 10:19:00;;;;;;;1.42;0.60;;;35.40;20.30;;;;;;4994986;28;20029;-79
2022/05/31 10:21:32;;;;;;;2.10;0.50;;;36.00;19.40;;;;;;5007918;28;20415;-79
2022/05/31 10:24:24;;;;;;;1.83;0.98;;;36.30;19.60;;;;;;5014705;28;20068;-79
2022/05/31 10:27:28;;;;;;;1.30;0.65;;;36.30;19.10;;;;;;5003565;28;20066;-79
2022/05/31 10:30:06;;;;;;;1.70;0.30;;;35.00;18.90;;;;;;4994823;28;20030;-79
2022/05/31 10:32:47;;;;;;;1.30;0.43;;;33.80;20.00;;;;;;4999675;28;20037;-78
2022/05/31 10:35:21;;;;;;;1.95;0.32;;;33.30;19.80;;;;;;5014232;28;20022;-79
2022/05/31 10:38:04;;;;;;;2.22;0.68;;;33.10;19.90;;;;;;4998759;28;20023;-79
2022/05/31 10:40:37;;;;;;;1.05;0.45;;;32.70;21.10;;;;;;4994439;28;20038;-78
2022/05/31 10:43:18;;;;;;;1.83;0.57;;;32.30;21.70;;;;;;4994322;28;20627;-79
2022/05/31 10:45:43;;;;;;;2.33;0.70;;;31.50;21.70;;;;;;4997831;28;20029;-78
2022/05/31 10:48:09;;;;;;;2.45;0.77;;;31.10;22.50;;;;;;5013885;28;20033;-78
2022/05/31 10:50:55;;;;;;;4.18;0.60;;;30.80;23.50;;;;;;4999163;28;20030;-78
2022/05/31 10:53:29;;;;;;;1.00;0.60;;;30.60;23.60;;;;;;5013617;28;20626;-78
2022/05/31 10:56:17;;;;;;;2.38;0.60;;;30.40;24.80;;;;;;5014176;28;20499;-78
2022/05/31 10:59:00;;;;;;;5.72;1.00;;;30.10;24.40;;;;;;5000623;28;20023;-78
2022/05/31 11:01:51;;;;;;;2.05;0.80;;;29.60;24.20;;;;;;4994195;28;20015;-78
2022/05/31 11:04:49;;;;;;;1.60;0.57;;;29.20;24.90;;;;;;5002998;28;20473;-78
2022/05/31 11:07:27;;;;;;;3.25;0.63;;;29.20;27.30;;;;;;5012409;28;20029;-78
2022/05/31 11:13:27;;;;;;;2.17;0.65;;;28.90;26.20;;;;;;4993838;28;20428;-78
2022/05/31 11:16:10;;;;;;;2.97;0.63;;;28.70;26.20;;;;;;4993224;28;20516;-79
2022/05/31 11:18:55;;;;;;;3.28;0.50;;;28.60;26.70;;;;;;5009094;28;20126;-78
2022/05/31 11:21:49;;;;;;;1.30;0.50;;;28.40;27.00;;;;;;5021397;28;20099;-78
2022/05/31 11:24:21;;;;;;;1.35;0.65;;;28.10;27.30;;;;;;5008857;28;20451;-80
2022/05/31 11:27:00;;;;;;;3.63;0.88;;;28.10;26.90;;;;;;4993979;28;20018;-80
2022/05/31 11:29:54;;;;;;;1.90;0.60;;;28.20;28.70;;;;;;5008536;28;20026;-80
2022/05/31 11:32:41;;;;;;;17.05;2.70;;;28.30;27.70;;;;;;5011893;28;20048;-80
2022/05/31 11:35:30;;;;;;;2.85;0.90;;;28.30;27.30;;;;;;4996557;28;20165;-80
2022/05/31 11:38:01;;;;;;;1.67;0.80;;;28.10;27.50;;;;;;4993699;28;20030;-81
2022/05/31 11:40:43;;;;;;;10.65;2.45;;;27.80;26.90;;;;;;5000018;28;20033;-80
2022/05/31 11:43:21;;;;;;;4.20;1.05;;;27.80;29.20;;;;;;5008208;28;20451;-80
2022/05/31 11:46:11;;;;;;;20.73;2.53;;;27.60;28.30;;;;;;4992701;28;20026;-80
2022/05/31 11:48:49;;;;;;;6.60;3.63;;;27.20;27.50;;;;;;4993653;28;20373;-80
2022/05/31 11:51:33;;;;;;;1.98;0.70;;;26.70;29.60;;;;;;4992756;28;20093;-79
2022/05/31 11:54:18;;;;;;;1.85;0.50;;;26.80;29.40;;;;;;4992267;28;20404;-80
2022/05/31 11:56:53;;;;;;;2.35;0.90;;;27.00;30.20;;;;;;4992984;28;20023;-80
2022/05/31 11:59:25;;;;;;;2.97;0.75;;;27.10;29.40;;;;;;4993574;28;20030;-80
2022/05/31 12:02:00;;;;;;;2.13;0.93;;;27.10;27.10;;;;;;4993494;28;20030;-80
2022/05/31 12:04:37;;;;;;;1.80;0.60;;;27.10;26.90;;;;;;4993750;28;20034;-80
2022/05/31 12:07:15;;;;;;;2.95;0.80;;;27.00;27.90;;;;;;5008605;28;20033;-80
2022/05/31 12:09:54;;;;;;;1.92;0.68;;;26.70;27.50;;;;;;4993806;28;20034;-80
2022/05/31 12:12:32;;;;;;;3.53;0.93;;;26.20;29.00;;;;;;5009021;28;20068;-80
2022/05/31 12:15:14;;;;;;;1.65;0.60;;;26.30;28.40;;;;;;5012581;28;20069;-79
2022/05/31 12:17:53;;;;;;;2.75;0.80;;;26.30;30.50;;;;;;4995898;28;20404;-78
2022/05/31 12:20:48;;;;;;;1.38;0.68;;;26.50;29.00;;;;;;4997795;28;20109;-79
2022/05/31 12:23:28;;;;;;;7.25;1.20;;;26.70;29.40;;;;;;5009855;28;20029;-79
2022/05/31 12:25:56;;;;;;;20.42;3.35;;;26.90;30.30;;;;;;4992077;28;20086;-79
2022/05/31 12:28:30;;;;;;;1.67;0.90;;;26.90;29.00;;;;;;5007934;28;20038;-80
2022/05/31 12:31:16;;;;;;;2.55;0.88;;;26.80;29.20;;;;;;4993376;28;20073;-79
2022/05/31 12:33:43;;;;;;;9.60;2.13;;;26.50;29.70;;;;;;5007495;28;20084;-79
2022/05/31 12:36:12;;;;;;;30.05;5.97;;;26.30;29.80;;;;;;5007923;28;20124;-80
2022/05/31 12:39:02;;;;;;;19.83;3.95;;;26.20;30.30;;;;;;4993337;28;20082;-80
2022/05/31 12:41:46;;;;;;;;;;;26.20;30.60;;;;;;5015031;28;20046;-79
2022/05/31 12:44:30;;;;;;;4.72;1.20;;;25.90;29.90;;;;;;5010907;28;19977;-80
2022/05/31 12:47:10;;;;;;;3.45;0.90;;;25.90;29.30;;;;;;4995270;28;20022;-79
2022/05/31 12:49:46;;;;;;;18.25;1.98;;;26.20;29.80;;;;;;4995441;28;20072;-80
2022/05/31 12:54:53;;;;;;;1.37;0.67;;;26.50;29.70;;;;;;4996525;28;20046;-80
2022/05/31 12:57:28;;;;;;;1.55;0.90;;;26.40;30.30;;;;;;5011459;28;20026;-80
2022/05/31 12:59:55;;;;;;;5.25;1.15;;;26.00;29.60;;;;;;4996768;28;20022;-80
2022/05/31 13:02:29;;;;;;;3.38;1.10;;;25.70;29.60;;;;;;4996480;28;20122;-80
2022/05/31 13:04:58;;;;;;;1.20;0.82;;;25.60;30.40;;;;;;5010033;28;20030;-80
2022/05/31 13:07:39;;;;;;;;;;;25.50;30.20;;;;;;4996844;28;20031;-80
2022/05/31 13:10:35;;;;;;;6.53;0.90;;;25.50;30.00;;;;;;4995984;28;20280;-79
2022/05/31 13:21:29;;;;;;;1.73;0.77;;;26.30;29.20;;;;;;4996265;28;20073;-77
2022/05/31 13:23:57;;;;;;;2.95;1.27;;;26.30;28.80;;;;;;5010941;28;20034;-79
2022/05/31 13:26:31;;;;;;;2.70;1.13;;;26.40;28.60;;;;;;4996187;28;20030;-80
2022/05/31 13:29:02;;;;;;;3.33;0.82;;;26.40;29.10;;;;;;4995145;28;20064;-80
2022/05/31 13:31:33;;;;;;;2.00;0.70;;;26.40;28.50;;;;;;5011103;28;20393;-79
2022/05/31 13:34:05;;;;;;;2.53;0.70;;;26.30;29.20;;;;;;4995697;28;20496;-79
2022/05/31 13:36:43;;;;;;;2.50;1.20;;;26.10;29.20;;;;;;5010724;28;20051;-79
2022/05/31 13:39:16;;;;;;;2.17;1.00;;;25.90;30.20;;;;;;5010761;28;20022;-79
2022/05/31 13:41:51;;;;;;;3.42;0.80;;;25.90;29.10;;;;;;5024293;28;20049;-79
2022/05/31 13:44:24;;;;;;;7.70;1.30;;;26.00;30.30;;;;;;4995174;28;20018;-80